sensor_id;sensor_type;location;lat;lon;timestamp;pressure;altitude;pressure_sealevel;temperature;humidity
7335;BME280;3708;42.632;23.378;2023-05-08T00:00:29;94474.72;;;18.72;42.37
7335;BME280;3708;42.632;23.378;2023-05-08T00:02:56;94481.50;;;18.70;42.41
7335;BME280;3708;42.632;23.378;2023-05-08T00:05:23;94478.28;;;18.50;43.02
7335;BME280;3708;42.632;23.378;2023-05-08T00:07:50;94484.94;;;18.41;43.18
7335;BME280;3708;42.632;23.378;2023-05-08T00:10:19;94481.03;;;18.31;43.41
7335;BME280;3708;42.632;23.378;2023-05-08T00:12:46;94485.53;;;18.27;43.61
7335;BME280;3708;42.632;23.378;2023-05-08T00:15:12;94480.97;;;18.24;43.64
7335;BME280;3708;42.632;23.378;2023-05-08T00:17:39;94488.53;;;18.22;43.74
7335;BME280;3708;42.632;23.378;2023-05-08T00:20:07;94485.53;;;18.27;43.82
7335;BME280;3708;42.632;23.378;2023-05-08T00:22:34;94485.94;;;18.29;43.71
7335;BME280;3708;42.632;23.378;2023-05-08T00:25:01;94489.34;;;18.29;43.69
7335;BME280;3708;42.632;23.378;2023-05-08T00:27:30;94486.00;;;18.33;43.89
7335;BME280;3708;42.632;23.378;2023-05-08T00:29:57;94487.16;;;18.35;43.72
7335;BME280;3708;42.632;23.378;2023-05-08T00:32:24;94493.16;;;18.28;43.86
7335;BME280;3708;42.632;23.378;2023-05-08T00:34:51;94495.34;;;18.23;43.76
7335;BME280;3708;42.632;23.378;2023-05-08T00:37:17;94499.53;;;18.24;43.88
7335;BME280;3708;42.632;23.378;2023-05-08T00:39:44;94500.38;;;18.02;44.21
7335;BME280;3708;42.632;23.378;2023-05-08T00:42:11;94499.88;;;18.22;43.62
7335;BME280;3708;42.632;23.378;2023-05-08T00:44:39;94492.88;;;18.37;43.44
7335;BME280;3708;42.632;23.378;2023-05-08T00:47:07;94491.56;;;18.54;43.16
7335;BME280;3708;42.632;23.378;2023-05-08T00:49:34;94491.28;;;18.62;42.94
7335;BME280;3708;42.632;23.378;2023-05-08T00:52:02;94490.63;;;18.72;42.79
7335;BME280;3708;42.632;23.378;2023-05-08T00:54:30;94493.38;;;18.46;43.23
7335;BME280;3708;42.632;23.378;2023-05-08T00:56:57;94487.31;;;18.46;43.46
7335;BME280;3708;42.632;23.378;2023-05-08T00:59:24;94491.59;;;18.57;43.19
7335;BME280;3708;42.632;23.378;2023-05-08T01:01:52;94500.81;;;18.67;42.96
7335;BME280;3708;42.632;23.378;2023-05-08T01:04:20;94498.19;;;18.70;42.75
7335;BME280;3708;42.632;23.378;2023-05-08T01:06:50;94498.19;;;18.70;42.67
7335;BME280;3708;42.632;23.378;2023-05-08T01:09:17;94497.56;;;18.80;42.58
7335;BME280;3708;42.632;23.378;2023-05-08T01:11:50;94499.03;;;18.78;42.84
7335;BME280;3708;42.632;23.378;2023-05-08T01:14:20;94503.09;;;18.68;42.69
7335;BME280;3708;42.632;23.378;2023-05-08T01:16:57;94498.94;;;18.67;42.83
7335;BME280;3708;42.632;23.378;2023-05-08T01:19:57;94506.13;;;18.67;43.02
7335;BME280;3708;42.632;23.378;2023-05-08T01:22:44;94502.31;;;18.64;43.26
7335;BME280;3708;42.632;23.378;2023-05-08T01:25:35;94502.94;;;18.54;43.41
7335;BME280;3708;42.632;23.378;2023-05-08T01:28:21;94497.00;;;18.35;43.70
7335;BME280;3708;42.632;23.378;2023-05-08T01:31:10;94501.81;;;18.25;43.93
7335;BME280;3708;42.632;23.378;2023-05-08T01:33:46;94494.75;;;18.37;43.62
7335;BME280;3708;42.632;23.378;2023-05-08T01:36:18;94494.56;;;18.22;43.99
7335;BME280;3708;42.632;23.378;2023-05-08T01:38:52;94501.50;;;18.31;43.92
7335;BME280;3708;42.632;23.378;2023-05-08T01:41:25;94491.63;;;18.31;43.98
7335;BME280;3708;42.632;23.378;2023-05-08T01:44:00;94490.22;;;18.37;44.03
7335;BME280;3708;42.632;23.378;2023-05-08T01:46:31;94484.50;;;18.05;44.12
7335;BME280;3708;42.632;23.378;2023-05-08T01:49:08;94490.34;;;17.88;45.25
7335;BME280;3708;42.632;23.378;2023-05-08T01:51:40;94493.66;;;17.82;45.69
7335;BME280;3708;42.632;23.378;2023-05-08T01:54:10;94489.56;;;17.88;45.73
7335;BME280;3708;42.632;23.378;2023-05-08T01:56:41;94487.84;;;17.73;46.02
7335;BME280;3708;42.632;23.378;2023-05-08T01:59:09;94479.81;;;17.43;46.99
7335;BME280;3708;42.632;23.378;2023-05-08T02:01:38;94493.69;;;17.36;47.34
7335;BME280;3708;42.632;23.378;2023-05-08T02:04:07;94483.09;;;17.36;47.57
7335;BME280;3708;42.632;23.378;2023-05-08T02:06:54;94482.81;;;17.41;47.62
7335;BME280;3708;42.632;23.378;2023-05-08T02:09:23;94489.28;;;17.44;47.71
7335;BME280;3708;42.632;23.378;2023-05-08T02:11:51;94484.34;;;17.42;47.74
7335;BME280;3708;42.632;23.378;2023-05-08T02:14:19;94485.47;;;17.41;47.71
7335;BME280;3708;42.632;23.378;2023-05-08T02:16:49;94492.28;;;17.42;47.90
7335;BME280;3708;42.632;23.378;2023-05-08T02:19:18;94480.97;;;17.45;47.85
7335;BME280;3708;42.632;23.378;2023-05-08T02:21:47;94484.88;;;17.51;47.76
7335;BME280;3708;42.632;23.378;2023-05-08T02:24:16;94496.50;;;17.47;47.68
7335;BME280;3708;42.632;23.378;2023-05-08T02:26:44;94494.06;;;17.35;47.87
7335;BME280;3708;42.632;23.378;2023-05-08T02:29:12;94497.88;;;17.15;48.33
7335;BME280;3708;42.632;23.378;2023-05-08T02:31:40;94496.13;;;17.22;48.15
7335;BME280;3708;42.632;23.378;2023-05-08T02:34:08;94499.06;;;17.17;48.28
7335;BME280;3708;42.632;23.378;2023-05-08T02:36:38;94501.34;;;17.19;48.28
7335;BME280;3708;42.632;23.378;2023-05-08T02:39:06;94495.72;;;17.20;48.41
7335;BME280;3708;42.632;23.378;2023-05-08T02:41:34;94498.25;;;17.13;48.28
7335;BME280;3708;42.632;23.378;2023-05-08T02:44:03;94499.25;;;17.05;48.54
7335;BME280;3708;42.632;23.378;2023-05-08T02:46:36;94491.19;;;16.98;48.72
7335;BME280;3708;42.632;23.378;2023-05-08T02:49:07;94491.78;;;16.88;48.96
7335;BME280;3708;42.632;23.378;2023-05-08T02:51:48;94499.81;;;16.95;48.96
7335;BME280;3708;42.632;23.378;2023-05-08T02:54:20;94497.44;;;17.09;48.77
7335;BME280;3708;42.632;23.378;2023-05-08T02:56:55;94495.56;;;17.10;48.48
7335;BME280;3708;42.632;23.378;2023-05-08T02:59:27;94502.00;;;17.12;48.40
7335;BME280;3708;42.632;23.378;2023-05-08T03:01:59;94508.00;;;17.09;48.48
7335;BME280;3708;42.632;23.378;2023-05-08T03:04:33;94504.41;;;16.75;49.51
7335;BME280;3708;42.632;23.378;2023-05-08T03:07:03;94505.09;;;16.72;49.80
7335;BME280;3708;42.632;23.378;2023-05-08T03:09:37;94504.41;;;16.98;49.41
7335;BME280;3708;42.632;23.378;2023-05-08T03:12:10;94496.00;;;17.15;48.98
7335;BME280;3708;42.632;23.378;2023-05-08T03:14:43;94499.16;;;17.21;48.83
7335;BME280;3708;42.632;23.378;2023-05-08T03:17:14;94500.91;;;17.13;48.95
7335;BME280;3708;42.632;23.378;2023-05-08T03:19:46;94499.34;;;17.12;48.95
7335;BME280;3708;42.632;23.378;2023-05-08T03:22:18;94508.19;;;17.20;48.75
7335;BME280;3708;42.632;23.378;2023-05-08T03:24:47;94510.88;;;17.01;49.03
7335;BME280;3708;42.632;23.378;2023-05-08T03:27:16;94513.81;;;16.96;49.32
7335;BME280;3708;42.632;23.378;2023-05-08T03:29:45;94513.25;;;17.06;49.06
7335;BME280;3708;42.632;23.378;2023-05-08T03:32:12;94507.97;;;17.06;49.10
7335;BME280;3708;42.632;23.378;2023-05-08T03:34:40;94515.75;;;17.21;48.96
7335;BME280;3708;42.632;23.378;2023-05-08T03:37:07;94518.53;;;17.28;48.48
7335;BME280;3708;42.632;23.378;2023-05-08T03:39:35;94513.19;;;17.25;48.55
7335;BME280;3708;42.632;23.378;2023-05-08T03:42:02;94516.97;;;16.25;50.61
7335;BME280;3708;42.632;23.378;2023-05-08T03:44:29;94518.84;;;15.89;51.96
7335;BME280;3708;42.632;23.378;2023-05-08T03:46:58;94514.47;;;16.13;51.76
7335;BME280;3708;42.632;23.378;2023-05-08T03:49:25;94510.75;;;16.71;50.65
7335;BME280;3708;42.632;23.378;2023-05-08T03:51:55;94514.63;;;17.00;49.70
7335;BME280;3708;42.632;23.378;2023-05-08T03:54:22;94516.94;;;17.01;49.05
7335;BME280;3708;42.632;23.378;2023-05-08T03:56:52;94518.72;;;17.16;48.94
7335;BME280;3708;42.632;23.378;2023-05-08T03:59:23;94521.22;;;17.32;48.44
7335;BME280;3708;42.632;23.378;2023-05-08T04:01:57;94520.72;;;17.23;48.37
7335;BME280;3708;42.632;23.378;2023-05-08T04:04:32;94521.22;;;17.32;48.29
7335;BME280;3708;42.632;23.378;2023-05-08T04:07:07;94527.63;;;16.86;49.47
7335;BME280;3708;42.632;23.378;2023-05-08T04:09:39;94528.41;;;17.09;48.96
7335;BME280;3708;42.632;23.378;2023-05-08T04:12:14;94531.03;;;16.86;49.77
7335;BME280;3708;42.632;23.378;2023-05-08T04:14:47;94533.38;;;15.80;52.44
7335;BME280;3708;42.632;23.378;2023-05-08T04:17:21;94542.09;;;15.65;53.31
7335;BME280;3708;42.632;23.378;2023-05-08T04:19:54;94530.38;;;16.16;51.95
7335;BME280;3708;42.632;23.378;2023-05-08T04:22:24;94536.50;;;16.55;51.03
7335;BME280;3708;42.632;23.378;2023-05-08T04:24:54;94532.56;;;16.49;50.91
7335;BME280;3708;42.632;23.378;2023-05-08T04:27:25;94537.97;;;16.18;51.58
7335;BME280;3708;42.632;23.378;2023-05-08T04:29:52;94545.38;;;15.77;53.16
7335;BME280;3708;42.632;23.378;2023-05-08T04:32:20;94548.00;;;15.93;52.72
7335;BME280;3708;42.632;23.378;2023-05-08T04:37:33;94539.06;;;16.51;51.23
7335;BME280;3708;42.632;23.378;2023-05-08T04:40:00;94534.94;;;16.92;50.28
7335;BME280;3708;42.632;23.378;2023-05-08T04:42:29;94540.31;;;17.18;49.80
7335;BME280;3708;42.632;23.378;2023-05-08T04:44:57;94532.59;;;17.32;49.22
7335;BME280;3708;42.632;23.378;2023-05-08T04:47:24;94531.66;;;17.67;48.70
7335;BME280;3708;42.632;23.378;2023-05-08T04:49:51;94525.78;;;17.77;47.92
7335;BME280;3708;42.632;23.378;2023-05-08T04:52:18;94531.25;;;17.91;47.77
7335;BME280;3708;42.632;23.378;2023-05-08T04:54:44;94531.13;;;18.10;47.50
7335;BME280;3708;42.632;23.378;2023-05-08T04:57:11;94524.13;;;17.95;47.54
7335;BME280;3708;42.632;23.378;2023-05-08T04:59:40;94525.75;;;18.03;47.51
7335;BME280;3708;42.632;23.378;2023-05-08T05:02:07;94522.63;;;18.23;47.14
7335;BME280;3708;42.632;23.378;2023-05-08T05:04:34;94516.75;;;18.37;46.71
7335;BME280;3708;42.632;23.378;2023-05-08T05:07:01;94520.53;;;18.40;46.65
7335;BME280;3708;42.632;23.378;2023-05-08T05:09:27;94521.53;;;18.54;45.83
7335;BME280;3708;42.632;23.378;2023-05-08T05:11:54;94517.16;;;18.72;45.61
7335;BME280;3708;42.632;23.378;2023-05-08T05:14:21;94514.31;;;18.91;45.54
7335;BME280;3708;42.632;23.378;2023-05-08T05:16:49;94514.66;;;18.86;46.11
7335;BME280;3708;42.632;23.378;2023-05-08T05:19:17;94514.41;;;18.98;46.11
7335;BME280;3708;42.632;23.378;2023-05-08T05:21:44;94514.56;;;19.13;45.94
7335;BME280;3708;42.632;23.378;2023-05-08T05:24:10;94516.06;;;19.14;45.92
7335;BME280;3708;42.632;23.378;2023-05-08T05:26:37;94508.09;;;18.73;46.45
7335;BME280;3708;42.632;23.378;2023-05-08T05:29:04;94518.25;;;18.38;46.86
7335;BME280;3708;42.632;23.378;2023-05-08T05:31:31;94506.56;;;18.72;46.21
7335;BME280;3708;42.632;23.378;2023-05-08T05:33:59;94508.19;;;18.84;45.96
7335;BME280;3708;42.632;23.378;2023-05-08T05:36:26;94506.16;;;19.07;45.68
7335;BME280;3708;42.632;23.378;2023-05-08T05:38:53;94510.16;;;19.31;45.49
7335;BME280;3708;42.632;23.378;2023-05-08T05:41:20;94506.72;;;19.30;44.97
7335;BME280;3708;42.632;23.378;2023-05-08T05:43:47;94505.78;;;19.49;44.90
7335;BME280;3708;42.632;23.378;2023-05-08T05:46:14;94508.63;;;19.30;45.34
7335;BME280;3708;42.632;23.378;2023-05-08T05:48:41;94511.16;;;19.56;44.62
7335;BME280;3708;42.632;23.378;2023-05-08T05:51:09;94514.31;;;19.75;44.38
7335;BME280;3708;42.632;23.378;2023-05-08T05:53:36;94502.25;;;19.89;43.95
7335;BME280;3708;42.632;23.378;2023-05-08T05:56:03;94517.16;;;20.00;43.44
7335;BME280;3708;42.632;23.378;2023-05-08T05:58:30;94507.69;;;20.03;43.37
7335;BME280;3708;42.632;23.378;2023-05-08T06:00:57;94508.44;;;20.03;43.35
7335;BME280;3708;42.632;23.378;2023-05-08T06:03:25;94505.53;;;20.22;43.06
7335;BME280;3708;42.632;23.378;2023-05-08T06:05:52;94505.47;;;20.15;43.04
7335;BME280;3708;42.632;23.378;2023-05-08T06:08:20;94501.84;;;20.51;42.69
7335;BME280;3708;42.632;23.378;2023-05-08T06:10:46;94497.28;;;20.48;41.87
7335;BME280;3708;42.632;23.378;2023-05-08T06:13:13;94493.53;;;20.64;41.79
7335;BME280;3708;42.632;23.378;2023-05-08T06:15:40;94494.66;;;20.63;41.92
7335;BME280;3708;42.632;23.378;2023-05-08T06:18:07;94489.00;;;20.82;41.57
7335;BME280;3708;42.632;23.378;2023-05-08T06:20:36;94505.03;;;20.96;41.33
7335;BME280;3708;42.632;23.378;2023-05-08T06:23:03;94492.16;;;21.15;41.14
7335;BME280;3708;42.632;23.378;2023-05-08T06:25:31;94493.59;;;20.85;41.87
7335;BME280;3708;42.632;23.378;2023-05-08T06:27:58;94487.59;;;21.09;41.57
7335;BME280;3708;42.632;23.378;2023-05-08T06:30:25;94489.13;;;21.31;40.88
7335;BME280;3708;42.632;23.378;2023-05-08T06:32:51;94495.59;;;21.51;39.57
7335;BME280;3708;42.632;23.378;2023-05-08T06:35:18;94498.66;;;21.53;39.70
7335;BME280;3708;42.632;23.378;2023-05-08T06:37:45;94497.53;;;21.54;39.48
7335;BME280;3708;42.632;23.378;2023-05-08T06:40:12;94500.53;;;21.77;39.16
7335;BME280;3708;42.632;23.378;2023-05-08T06:42:41;94491.38;;;21.78;39.26
7335;BME280;3708;42.632;23.378;2023-05-08T06:45:08;94500.16;;;21.82;39.55
7335;BME280;3708;42.632;23.378;2023-05-08T06:47:35;94495.19;;;22.02;39.44
7335;BME280;3708;42.632;23.378;2023-05-08T06:50:02;94499.78;;;21.38;39.95
7335;BME280;3708;42.632;23.378;2023-05-08T06:52:29;94500.50;;;21.03;40.95
7335;BME280;3708;42.632;23.378;2023-05-08T06:54:56;94500.56;;;21.28;40.36
7335;BME280;3708;42.632;23.378;2023-05-08T06:57:23;94494.47;;;21.38;40.39
7335;BME280;3708;42.632;23.378;2023-05-08T06:59:52;94496.75;;;21.33;40.66
7335;BME280;3708;42.632;23.378;2023-05-08T07:02:19;94495.63;;;21.48;40.28
7335;BME280;3708;42.632;23.378;2023-05-08T07:04:46;94500.16;;;21.68;39.64
7335;BME280;3708;42.632;23.378;2023-05-08T07:07:13;94499.00;;;21.97;39.50
7335;BME280;3708;42.632;23.378;2023-05-08T07:09:40;94496.59;;;22.42;38.59
7335;BME280;3708;42.632;23.378;2023-05-08T07:12:07;94500.00;;;22.53;38.26
7335;BME280;3708;42.632;23.378;2023-05-08T07:14:34;94498.88;;;22.47;38.24
7335;BME280;3708;42.632;23.378;2023-05-08T07:17:03;94500.78;;;22.43;38.25
7335;BME280;3708;42.632;23.378;2023-05-08T07:19:32;94504.97;;;22.44;38.62
7335;BME280;3708;42.632;23.378;2023-05-08T07:21:59;94510.81;;;22.00;38.75
7335;BME280;3708;42.632;23.378;2023-05-08T07:24:26;94511.22;;;21.91;39.02
7335;BME280;3708;42.632;23.378;2023-05-08T07:26:52;94508.19;;;21.93;38.72
7335;BME280;3708;42.632;23.378;2023-05-08T07:29:19;94496.69;;;22.14;38.69
7335;BME280;3708;42.632;23.378;2023-05-08T07:31:46;94495.84;;;22.41;38.86
7335;BME280;3708;42.632;23.378;2023-05-08T07:34:14;94493.94;;;22.42;38.53
7335;BME280;3708;42.632;23.378;2023-05-08T07:36:41;94501.94;;;22.49;38.68
7335;BME280;3708;42.632;23.378;2023-05-08T07:39:08;94501.28;;;22.10;38.99
7335;BME280;3708;42.632;23.378;2023-05-08T07:41:35;94499.72;;;22.23;39.54
7335;BME280;3708;42.632;23.378;2023-05-08T07:44:03;94501.03;;;22.80;39.01
7335;BME280;3708;42.632;23.378;2023-05-08T07:46:30;94509.75;;;22.91;38.52
7335;BME280;3708;42.632;23.378;2023-05-08T07:48:57;94499.44;;;22.93;37.56
7335;BME280;3708;42.632;23.378;2023-05-08T07:51:25;94503.56;;;23.08;37.32
7335;BME280;3708;42.632;23.378;2023-05-08T07:53:52;94512.84;;;22.83;37.50
7335;BME280;3708;42.632;23.378;2023-05-08T07:56:19;94505.72;;;22.55;37.46
7335;BME280;3708;42.632;23.378;2023-05-08T07:58:46;94510.88;;;22.97;36.94
7335;BME280;3708;42.632;23.378;2023-05-08T08:01:13;94516.63;;;22.92;37.22
7335;BME280;3708;42.632;23.378;2023-05-08T08:03:42;94510.13;;;22.97;36.92
7335;BME280;3708;42.632;23.378;2023-05-08T08:06:09;94520.63;;;22.42;37.86
7335;BME280;3708;42.632;23.378;2023-05-08T08:08:37;94522.53;;;20.93;40.73
7335;BME280;3708;42.632;23.378;2023-05-08T08:11:04;94520.16;;;20.71;40.92
7335;BME280;3708;42.632;23.378;2023-05-08T08:13:31;94517.28;;;21.36;40.02
7335;BME280;3708;42.632;23.378;2023-05-08T08:15:59;94516.53;;;22.06;38.86
7335;BME280;3708;42.632;23.378;2023-05-08T08:18:28;94522.56;;;22.24;38.71
7335;BME280;3708;42.632;23.378;2023-05-08T08:20:55;94518.81;;;21.82;39.02
7335;BME280;3708;42.632;23.378;2023-05-08T08:23:22;94522.59;;;21.28;40.02
7335;BME280;3708;42.632;23.378;2023-05-08T08:25:50;94519.94;;;22.02;38.78
7335;BME280;3708;42.632;23.378;2023-05-08T08:28:18;94515.19;;;22.77;37.55
7335;BME280;3708;42.632;23.378;2023-05-08T08:30:45;94512.28;;;23.19;37.10
7335;BME280;3708;42.632;23.378;2023-05-08T08:33:11;94504.28;;;23.16;36.66
7335;BME280;3708;42.632;23.378;2023-05-08T08:35:38;94508.25;;;23.48;36.14
7335;BME280;3708;42.632;23.378;2023-05-08T08:38:05;94505.22;;;23.46;36.04
7335;BME280;3708;42.632;23.378;2023-05-08T08:40:32;94505.81;;;23.13;37.04
7335;BME280;3708;42.632;23.378;2023-05-08T08:43:00;94504.53;;;22.70;37.39
7335;BME280;3708;42.632;23.378;2023-05-08T08:45:26;94499.97;;;22.63;37.60
7335;BME280;3708;42.632;23.378;2023-05-08T08:47:54;94499.63;;;22.47;38.12
7335;BME280;3708;42.632;23.378;2023-05-08T08:50:23;94491.09;;;22.84;37.52
7335;BME280;3708;42.632;23.378;2023-05-08T08:52:56;94498.78;;;22.75;38.19
7335;BME280;3708;42.632;23.378;2023-05-08T08:55:26;94489.69;;;22.55;38.47
7335;BME280;3708;42.632;23.378;2023-05-08T08:58:11;94488.31;;;21.97;40.22
7335;BME280;3708;42.632;23.378;2023-05-08T09:00:40;94480.63;;;22.31;39.10
7335;BME280;3708;42.632;23.378;2023-05-08T09:03:07;94487.88;;;22.31;39.28
7335;BME280;3708;42.632;23.378;2023-05-08T09:05:34;94480.81;;;22.83;38.40
7335;BME280;3708;42.632;23.378;2023-05-08T09:08:01;94479.09;;;22.34;39.36
7335;BME280;3708;42.632;23.378;2023-05-08T09:10:28;94474.47;;;22.41;39.39
7335;BME280;3708;42.632;23.378;2023-05-08T09:12:55;94470.63;;;22.53;39.44
7335;BME280;3708;42.632;23.378;2023-05-08T09:15:23;94468.19;;;22.87;38.52
7335;BME280;3708;42.632;23.378;2023-05-08T09:17:50;94457.84;;;22.96;38.61
7335;BME280;3708;42.632;23.378;2023-05-08T09:20:18;94455.09;;;23.06;38.27
7335;BME280;3708;42.632;23.378;2023-05-08T09:22:45;94461.00;;;23.38;37.86
7335;BME280;3708;42.632;23.378;2023-05-08T09:25:12;94456.66;;;23.55;37.57
7335;BME280;3708;42.632;23.378;2023-05-08T09:27:39;94445.78;;;23.76;37.38
7335;BME280;3708;42.632;23.378;2023-05-08T09:30:07;94455.91;;;23.92;37.50
7335;BME280;3708;42.632;23.378;2023-05-08T09:32:37;94445.34;;;24.18;37.34
7335;BME280;3708;42.632;23.378;2023-05-08T09:35:05;94434.94;;;24.24;37.40
7335;BME280;3708;42.632;23.378;2023-05-08T09:37:33;94438.53;;;24.44;37.19
7335;BME280;3708;42.632;23.378;2023-05-08T09:40:13;94426.81;;;24.65;36.58
7335;BME280;3708;42.632;23.378;2023-05-08T09:42:40;94424.03;;;24.75;36.61
7335;BME280;3708;42.632;23.378;2023-05-08T09:45:07;94435.16;;;24.70;36.37
7335;BME280;3708;42.632;23.378;2023-05-08T09:47:36;94432.06;;;24.75;36.62
7335;BME280;3708;42.632;23.378;2023-05-08T09:50:05;94443.91;;;24.44;36.92
7335;BME280;3708;42.632;23.378;2023-05-08T09:52:33;94445.03;;;24.77;36.25
7335;BME280;3708;42.632;23.378;2023-05-08T09:55:02;94457.03;;;24.95;35.67
7335;BME280;3708;42.632;23.378;2023-05-08T09:57:32;94457.00;;;24.39;36.59
7335;BME280;3708;42.632;23.378;2023-05-08T10:00:02;94461.66;;;24.31;37.07
7335;BME280;3708;42.632;23.378;2023-05-08T10:02:30;94454.31;;;24.69;36.33
7335;BME280;3708;42.632;23.378;2023-05-08T10:04:58;94443.41;;;24.86;35.78
7335;BME280;3708;42.632;23.378;2023-05-08T10:07:30;94445.88;;;25.24;35.40
7335;BME280;3708;42.632;23.378;2023-05-08T10:09:58;94445.13;;;25.23;36.05
7335;BME280;3708;42.632;23.378;2023-05-08T10:12:26;94448.09;;;25.06;35.40
7335;BME280;3708;42.632;23.378;2023-05-08T10:14:53;94453.59;;;25.48;35.13
7335;BME280;3708;42.632;23.378;2023-05-08T10:17:25;94451.16;;;24.47;36.33
7335;BME280;3708;42.632;23.378;2023-05-08T10:19:59;94448.03;;;24.18;37.10
7335;BME280;3708;42.632;23.378;2023-05-08T10:22:27;94438.13;;;24.79;36.06
7335;BME280;3708;42.632;23.378;2023-05-08T10:24:56;94435.81;;;24.78;35.82
7335;BME280;3708;42.632;23.378;2023-05-08T10:27:31;94433.94;;;25.05;35.87
7335;BME280;3708;42.632;23.378;2023-05-08T10:30:01;94425.97;;;24.71;35.87
7335;BME280;3708;42.632;23.378;2023-05-08T10:32:34;94427.41;;;23.37;38.77
7335;BME280;3708;42.632;23.378;2023-05-08T10:35:07;94425.84;;;23.40;38.89
7335;BME280;3708;42.632;23.378;2023-05-08T10:37:35;94429.91;;;23.59;38.53
7335;BME280;3708;42.632;23.378;2023-05-08T10:40:03;94418.59;;;23.81;38.34
7335;BME280;3708;42.632;23.378;2023-05-08T10:42:32;94420.91;;;23.79;38.24
7335;BME280;3708;42.632;23.378;2023-05-08T10:44:59;94423.53;;;23.42;39.73
7335;BME280;3708;42.632;23.378;2023-05-08T10:47:31;94419.41;;;22.79;41.21
7335;BME280;3708;42.632;23.378;2023-05-08T10:50:03;94418.75;;;23.64;39.20
7335;BME280;3708;42.632;23.378;2023-05-08T10:52:35;94410.63;;;24.45;38.24
7335;BME280;3708;42.632;23.378;2023-05-08T10:55:20;94405.72;;;25.47;37.14
7335;BME280;3708;42.632;23.378;2023-05-08T10:58:02;94402.88;;;26.20;34.88
7335;BME280;3708;42.632;23.378;2023-05-08T11:00:31;94411.19;;;26.81;34.08
7335;BME280;3708;42.632;23.378;2023-05-08T11:03:04;94403.88;;;26.45;33.99
7335;BME280;3708;42.632;23.378;2023-05-08T11:05:44;94408.34;;;25.93;35.32
7335;BME280;3708;42.632;23.378;2023-05-08T11:08:16;94396.97;;;26.44;34.44
7335;BME280;3708;42.632;23.378;2023-05-08T11:10:44;94393.94;;;26.62;34.26
7335;BME280;3708;42.632;23.378;2023-05-08T11:13:14;94396.53;;;26.30;34.51
7335;BME280;3708;42.632;23.378;2023-05-08T11:15:48;94403.09;;;26.06;34.89
7335;BME280;3708;42.632;23.378;2023-05-08T11:18:16;94387.00;;;26.81;33.71
7335;BME280;3708;42.632;23.378;2023-05-08T11:20:56;94383.84;;;26.66;33.84
7335;BME280;3708;42.632;23.378;2023-05-08T11:23:25;94380.13;;;26.80;33.74
7335;BME280;3708;42.632;23.378;2023-05-08T11:25:58;94376.50;;;27.35;33.18
7335;BME280;3708;42.632;23.378;2023-05-08T11:28:26;94372.69;;;27.52;33.62
7335;BME280;3708;42.632;23.378;2023-05-08T11:30:53;94372.84;;;27.89;32.29
7335;BME280;3708;42.632;23.378;2023-05-08T11:33:21;94368.75;;;28.26;31.44
7335;BME280;3708;42.632;23.378;2023-05-08T11:35:53;94364.38;;;28.45;31.11
7335;BME280;3708;42.632;23.378;2023-05-08T11:38:33;94367.88;;;28.17;32.43
7335;BME280;3708;42.632;23.378;2023-05-08T11:41:02;94361.94;;;28.88;31.78
7335;BME280;3708;42.632;23.378;2023-05-08T11:44:08;94347.41;;;29.45;29.56
7335;BME280;3708;42.632;23.378;2023-05-08T11:46:40;94339.91;;;29.27;30.33
7335;BME280;3708;42.632;23.378;2023-05-08T11:49:13;94340.13;;;29.55;29.52
7335;BME280;3708;42.632;23.378;2023-05-08T11:51:41;94341.16;;;29.70;28.90
7335;BME280;3708;42.632;23.378;2023-05-08T11:54:17;94329.41;;;29.98;28.69
7335;BME280;3708;42.632;23.378;2023-05-08T11:56:45;94331.28;;;30.10;28.28
7335;BME280;3708;42.632;23.378;2023-05-08T11:59:13;94333.53;;;30.11;28.01
7335;BME280;3708;42.632;23.378;2023-05-08T12:01:40;94321.94;;;30.02;28.24
7335;BME280;3708;42.632;23.378;2023-05-08T12:04:09;94311.06;;;30.14;28.56
7335;BME280;3708;42.632;23.378;2023-05-08T12:06:37;94311.69;;;29.97;28.39
7335;BME280;3708;42.632;23.378;2023-05-08T12:09:09;94321.28;;;29.76;28.25
7335;BME280;3708;42.632;23.378;2023-05-08T12:11:38;94310.13;;;29.53;28.79
7335;BME280;3708;42.632;23.378;2023-05-08T12:14:05;94308.13;;;29.44;28.88
7335;BME280;3708;42.632;23.378;2023-05-08T12:16:34;94306.78;;;29.83;28.21
7335;BME280;3708;42.632;23.378;2023-05-08T12:19:03;94318.06;;;28.75;29.41
7335;BME280;3708;42.632;23.378;2023-05-08T12:21:30;94309.53;;;28.64;29.76
7335;BME280;3708;42.632;23.378;2023-05-08T12:23:57;94312.00;;;27.92;30.87
7335;BME280;3708;42.632;23.378;2023-05-08T12:26:24;94308.19;;;27.48;31.52
7335;BME280;3708;42.632;23.378;2023-05-08T12:28:55;94302.28;;;27.08;31.81
7335;BME280;3708;42.632;23.378;2023-05-08T12:31:22;94305.91;;;27.02;32.24
7335;BME280;3708;42.632;23.378;2023-05-08T12:33:49;94298.31;;;26.65;32.63
7335;BME280;3708;42.632;23.378;2023-05-08T12:36:17;94299.84;;;26.82;32.20
7335;BME280;3708;42.632;23.378;2023-05-08T12:38:44;94290.50;;;27.18;31.02
7335;BME280;3708;42.632;23.378;2023-05-08T12:41:11;94286.22;;;27.21;31.43
7335;BME280;3708;42.632;23.378;2023-05-08T12:43:38;94294.78;;;27.16;31.44
7335;BME280;3708;42.632;23.378;2023-05-08T12:46:09;94295.44;;;26.56;32.20
7335;BME280;3708;42.632;23.378;2023-05-08T12:48:37;94306.66;;;24.67;35.38
7335;BME280;3708;42.632;23.378;2023-05-08T12:51:04;94317.06;;;23.71;40.29
7335;BME280;3708;42.632;23.378;2023-05-08T12:53:32;94308.16;;;23.47;37.68
7335;BME280;3708;42.632;23.378;2023-05-08T12:56:01;94288.41;;;24.01;39.70
7335;BME280;3708;42.632;23.378;2023-05-08T12:58:30;94283.25;;;24.94;39.24
7335;BME280;3708;42.632;23.378;2023-05-08T13:01:07;94289.44;;;25.57;39.85
7335;BME280;3708;42.632;23.378;2023-05-08T13:03:38;94280.91;;;25.42;39.27
7335;BME280;3708;42.632;23.378;2023-05-08T13:06:05;94277.59;;;25.12;41.21
7335;BME280;3708;42.632;23.378;2023-05-08T13:08:34;94274.09;;;24.42;42.66
7335;BME280;3708;42.632;23.378;2023-05-08T13:11:02;94274.31;;;23.67;43.27
7335;BME280;3708;42.632;23.378;2023-05-08T13:13:31;94267.03;;;23.37;42.17
7335;BME280;3708;42.632;23.378;2023-05-08T13:16:01;94280.56;;;23.20;43.09
7335;BME280;3708;42.632;23.378;2023-05-08T13:18:30;94279.22;;;23.38;42.98
7335;BME280;3708;42.632;23.378;2023-05-08T13:20:58;94289.59;;;23.29;41.22
7335;BME280;3708;42.632;23.378;2023-05-08T13:23:26;94283.28;;;23.54;41.54